Time;durP1;ratioP1;P1;durP2;ratioP2;P2;SDS_P1;SDS_P2;PMS_P1;PMS_P2;Temp;Humidity;BMP_temperature;BMP_pressure;BME280_temperature;BME280_humidity;BME280_pressure;Samples;Min_cycle;Max_cycle;Signal;HPM_P1;HPM_P2
2023/08/24 00:00:10;;;;;;;15.35;13.90;;;17.70;85.30;;;;;;5105716;28;20170;-90
2023/08/24 00:02:37;;;;;;;15.30;13.88;;;17.70;85.40;;;;;;5106647;28;20194;-90
2023/08/24 00:05:03;;;;;;;15.30;14.02;;;17.70;85.40;;;;;;5108488;28;20235;-90
2023/08/24 00:07:28;;;;;;;15.07;13.98;;;17.70;85.50;;;;;;5107518;28;20230;-90
2023/08/24 00:09:54;;;;;;;16.23;14.40;;;17.60;85.50;;;;;;5104999;28;20170;-90
2023/08/24 00:12:19;;;;;;;14.75;13.60;;;17.50;85.60;;;;;;5104837;28;20181;-90
2023/08/24 00:14:45;;;;;;;16.13;14.40;;;17.50;85.60;;;;;;5106669;28;20208;-90
2023/08/24 00:17:10;;;;;;;15.23;14.02;;;17.50;85.70;;;;;;5112951;28;20179;-90
2023/08/24 00:19:36;;;;;;;15.18;13.98;;;17.50;85.70;;;;;;5112571;28;20222;-90
2023/08/24 00:22:02;;;;;;;25.45;23.55;;;17.50;85.80;;;;;;5114182;28;20689;-90
2023/08/24 00:24:27;;;;;;;27.80;25.38;;;17.40;85.90;;;;;;5115849;28;20204;-90
2023/08/24 00:26:53;;;;;;;31.73;29.35;;;17.40;86.00;;;;;;5117638;28;20180;-90
2023/08/24 00:29:18;;;;;;;15.77;14.27;;;17.30;86.10;;;;;;5115320;28;20178;-90
2023/08/24 00:31:44;;;;;;;14.48;13.38;;;17.40;86.10;;;;;;5115173;28;20174;-90
2023/08/24 00:34:09;;;;;;;15.07;13.57;;;17.30;86.30;;;;;;5115695;28;20186;-91
2023/08/24 00:36:35;;;;;;;16.30;15.02;;;17.30;86.50;;;;;;5116676;28;20167;-90
2023/08/24 00:39:00;;;;;;;15.07;13.65;;;17.30;86.60;;;;;;5113039;28;20183;-90
2023/08/24 00:41:26;;;;;;;14.13;13.02;;;17.30;86.60;;;;;;5112730;28;20193;-90
2023/08/24 00:43:52;;;;;;;13.95;12.65;;;17.20;86.60;;;;;;5110670;28;20199;-90
2023/08/24 00:46:18;;;;;;;13.48;12.57;;;17.20;86.60;;;;;;5112727;28;20183;-91
2023/08/24 00:48:44;;;;;;;13.88;12.82;;;17.20;86.60;;;;;;5114302;28;20181;-90
2023/08/24 00:51:09;;;;;;;14.07;12.60;;;17.20;86.60;;;;;;5103204;28;20198;-91
2023/08/24 00:53:37;;;;;;;14.15;12.95;;;17.20;86.60;;;;;;5105597;28;20254;-90
2023/08/24 00:56:04;;;;;;;13.90;12.55;;;17.20;86.60;;;;;;5096808;28;20198;-91
2023/08/24 00:58:32;;;;;;;12.80;12.00;;;17.10;86.60;;;;;;5099997;28;20177;-91
2023/08/24 01:00:58;;;;;;;12.18;11.38;;;17.00;86.60;;;;;;5095823;28;20269;-91
2023/08/24 01:03:24;;;;;;;11.55;10.70;;;17.00;86.60;;;;;;5105312;28;20212;-89
2023/08/24 01:05:50;;;;;;;12.02;11.07;;;16.80;86.80;;;;;;5098715;28;20198;-89
2023/08/24 01:08:16;;;;;;;13.65;11.63;;;16.70;87.20;;;;;;5100721;28;20703;-90
2023/08/24 01:11:00;;;;;;;11.95;10.75;;;16.70;87.50;;;;;;5101351;28;20196;-89
2023/08/24 01:14:14;;;;;;;11.93;10.57;;;16.70;87.60;;;;;;5099561;28;20250;-90
2023/08/24 01:16:42;;;;;;;11.18;10.48;;;16.70;87.40;;;;;;5061009;28;20163;-90
2023/08/24 01:19:24;;;;;;;12.30;11.48;;;16.70;87.60;;;;;;5098637;28;20187;-90
2023/08/24 01:21:50;;;;;;;13.10;12.23;;;16.70;87.60;;;;;;5101642;28;20159;-90
2023/08/24 01:24:44;;;;;;;13.93;12.90;;;16.70;87.40;;;;;;5099209;28;20194;-90
2023/08/24 01:27:11;;;;;;;15.80;14.20;;;16.70;87.30;;;;;;5096481;28;20177;-89
2023/08/24 01:29:40;;;;;;;15.18;14.07;;;16.70;87.20;;;;;;5097109;28;20253;-89
2023/08/24 01:32:10;;;;;;;16.27;14.88;;;16.70;87.20;;;;;;5098883;28;20200;-89
2023/08/24 01:34:38;;;;;;;18.25;16.00;;;16.70;87.10;;;;;;5098590;28;20193;-90
2023/08/24 01:37:03;;;;;;;17.30;15.95;;;16.70;87.10;;;;;;5100219;28;20174;-90
2023/08/24 01:39:39;;;;;;;17.92;16.10;;;16.70;87.20;;;;;;5100453;28;20206;-89
2023/08/24 01:42:06;;;;;;;26.30;23.88;;;16.60;87.20;;;;;;5098752;28;20193;-89
2023/08/24 01:44:36;;;;;;;27.40;25.27;;;16.60;87.30;;;;;;5097304;28;20191;-90
2023/08/24 01:47:05;;;;;;;28.45;26.67;;;16.60;87.40;;;;;;5097796;28;20169;-89
2023/08/24 01:49:32;;;;;;;14.20;12.90;;;16.50;87.40;;;;;;5098392;28;20199;-90
2023/08/24 01:52:10;;;;;;;14.30;12.57;;;16.40;87.70;;;;;;5101886;28;20243;-89
2023/08/24 01:54:35;;;;;;;29.83;12.70;;;16.30;88.30;;;;;;5104280;28;20194;-89
2023/08/24 01:57:01;;;;;;;19.77;12.88;;;16.20;88.90;;;;;;5104428;28;20181;-90
2023/08/24 01:59:27;;;;;;;14.73;13.55;;;16.30;89.00;;;;;;5106655;28;20205;-89
2023/08/24 02:01:52;;;;;;;13.77;12.80;;;16.30;88.80;;;;;;5105329;28;20530;-90
2023/08/24 02:04:18;;;;;;;13.50;12.50;;;16.30;88.60;;;;;;5105918;28;20328;-89
2023/08/24 02:06:43;;;;;;;14.25;13.15;;;16.20;88.40;;;;;;5102553;28;20200;-90
2023/08/24 02:09:09;;;;;;;15.43;14.40;;;16.20;88.20;;;;;;5104490;28;20182;-90
2023/08/24 02:11:34;;;;;;;16.88;15.35;;;16.20;88.10;;;;;;5105257;28;20253;-89
2023/08/24 02:14:00;;;;;;;16.05;14.57;;;16.20;87.90;;;;;;5102963;28;20251;-89
2023/08/24 02:16:25;;;;;;;14.88;13.63;;;16.10;87.70;;;;;;5104381;28;20635;-89
2023/08/24 02:18:51;;;;;;;15.95;14.73;;;16.00;87.40;;;;;;5104176;28;20174;-89
2023/08/24 02:21:16;;;;;;;15.63;14.32;;;15.90;87.60;;;;;;5103045;28;20270;-90
2023/08/24 02:23:42;;;;;;;15.10;13.73;;;15.90;87.60;;;;;;5103645;28;20195;-89
2023/08/24 02:26:07;;;;;;;14.80;13.65;;;15.80;87.50;;;;;;5103170;28;20194;-90
2023/08/24 02:28:34;;;;;;;14.95;13.65;;;15.80;87.50;;;;;;5102281;28;20174;-89
2023/08/24 02:31:04;;;;;;;14.98;13.55;;;15.80;87.40;;;;;;5102565;28;20166;-90
2023/08/24 02:33:31;;;;;;;17.13;14.00;;;15.80;87.40;;;;;;5103333;28;20242;-90
2023/08/24 02:35:57;;;;;;;15.32;14.23;;;15.80;87.30;;;;;;5102542;28;20265;-89
2023/08/24 02:38:24;;;;;;;15.30;14.13;;;15.80;87.30;;;;;;5102143;28;20202;-89
2023/08/24 02:40:49;;;;;;;15.40;13.93;;;15.70;87.30;;;;;;5103164;28;20206;-89
2023/08/24 02:43:15;;;;;;;15.02;13.60;;;15.70;87.40;;;;;;5101868;28;20201;-89
2023/08/24 02:45:40;;;;;;;14.68;13.68;;;15.70;87.30;;;;;;5103009;28;20194;-90
2023/08/24 02:48:06;;;;;;;15.57;14.02;;;15.70;87.30;;;;;;5104531;28;20174;-90
2023/08/24 02:50:31;;;;;;;13.95;12.93;;;15.60;87.30;;;;;;5104483;28;20650;-89
2023/08/24 02:53:01;;;;;;;14.45;12.98;;;15.70;87.30;;;;;;5102163;28;20182;-90
2023/08/24 02:55:27;;;;;;;14.27;13.07;;;15.70;87.30;;;;;;5101273;28;20245;-89
2023/08/24 02:57:52;;;;;;;14.35;12.93;;;15.60;87.20;;;;;;5102580;28;20213;-89
2023/08/24 03:00:18;;;;;;;14.27;13.25;;;15.60;87.20;;;;;;5101454;28;20552;-90
2023/08/24 03:02:43;;;;;;;14.00;12.75;;;15.60;87.20;;;;;;5101808;28;20209;-90
2023/08/24 03:05:09;;;;;;;13.63;12.70;;;15.60;87.20;;;;;;5100456;28;20742;-90
2023/08/24 03:07:34;;;;;;;14.90;12.70;;;15.60;87.20;;;;;;5105122;28;20175;-89
2023/08/24 03:10:00;;;;;;;14.43;13.20;;;15.50;87.40;;;;;;5108438;28;20174;-90
2023/08/24 03:12:26;;;;;;;17.63;14.52;;;15.30;87.70;;;;;;5109422;28;20270;-89
2023/08/24 03:14:53;;;;;;;58.10;15.60;;;15.20;88.00;;;;;;5103273;28;20199;-90
2023/08/24 03:17:18;;;;;;;62.85;17.02;;;15.00;88.20;;;;;;5104512;28;20166;-89
2023/08/24 03:19:44;;;;;;;54.97;15.98;;;14.90;88.60;;;;;;5102827;28;20543;-90
2023/08/24 03:22:09;;;;;;;44.00;17.10;;;14.90;89.00;;;;;;5102713;28;20329;-89
2023/08/24 03:24:36;;;;;;;63.75;15.48;;;14.80;89.40;;;;;;5102766;28;20218;-90
2023/08/24 03:27:02;;;;;;;76.93;16.83;;;14.80;89.70;;;;;;5102067;28;20178;-89
2023/08/24 03:29:27;;;;;;;18.10;16.35;;;14.70;90.00;;;;;;5105271;28;20167;-89
2023/08/24 03:31:53;;;;;;;17.83;16.48;;;14.70;90.30;;;;;;5103958;28;20163;-89
2023/08/24 03:34:20;;;;;;;16.83;15.23;;;14.80;90.40;;;;;;5100508;28;20249;-89
2023/08/24 03:36:47;;;;;;;26.15;15.25;;;14.80;90.40;;;;;;5104745;28;20187;-90
2023/08/24 03:39:13;;;;;;;43.15;14.77;;;14.80;90.40;;;;;;5105859;28;20559;-90
2023/08/24 03:41:39;;;;;;;46.83;15.25;;;14.90;90.40;;;;;;5107478;28;20177;-90
2023/08/24 03:44:04;;;;;;;61.63;14.98;;;14.80;90.60;;;;;;5105862;28;20277;-89
2023/08/24 03:46:30;;;;;;;55.63;15.15;;;14.70;90.70;;;;;;5102980;28;20194;-89
2023/08/24 03:48:56;;;;;;;27.67;17.13;;;14.60;90.90;;;;;;5106961;28;20322;-89
2023/08/24 03:51:21;;;;;;;43.70;16.40;;;14.60;91.10;;;;;;5104709;28;20262;-89
2023/08/24 03:53:47;;;;;;;32.35;17.20;;;14.60;91.20;;;;;;5101627;28;20167;-89
2023/08/24 03:56:12;;;;;;;25.65;23.60;;;14.60;91.30;;;;;;5103171;28;20293;-89
2023/08/24 03:58:37;;;;;;;25.27;23.38;;;14.60;91.40;;;;;;5104162;28;20269;-89
2023/08/24 04:01:03;;;;;;;29.85;27.67;;;14.60;91.40;;;;;;5100203;28;20202;-89
2023/08/24 04:03:29;;;;;;;15.20;14.07;;;14.70;91.50;;;;;;5100672;28;20230;-89
2023/08/24 04:05:54;;;;;;;16.05;14.75;;;14.80;91.40;;;;;;5098586;28;20190;-89
2023/08/24 04:08:20;;;;;;;41.45;24.02;;;14.80;91.40;;;;;;5104494;28;20194;-90
2023/08/24 04:10:45;;;;;;;35.08;24.60;;;14.80;91.30;;;;;;5103538;28;20175;-89
2023/08/24 04:13:11;;;;;;;34.85;27.25;;;14.70;91.30;;;;;;5100206;28;20175;-89
2023/08/24 04:15:36;;;;;;;37.90;14.80;;;14.70;91.30;;;;;;5102029;28;20336;-90
2023/08/24 04:18:02;;;;;;;20.90;14.25;;;14.60;91.50;;;;;;5100129;28;20689;-89
2023/08/24 04:20:27;;;;;;;16.50;13.93;;;14.50;91.50;;;;;;5101062;28;20266;-90
2023/08/24 04:22:54;;;;;;;15.52;13.98;;;14.50;91.70;;;;;;5104031;28;20195;-89
2023/08/24 04:25:20;;;;;;;24.30;14.95;;;14.40;91.80;;;;;;5101064;28;20202;-89
2023/08/24 04:27:46;;;;;;;22.85;13.57;;;14.40;91.90;;;;;;5102138;28;20166;-90
2023/08/24 04:30:12;;;;;;;22.63;15.13;;;14.30;92.00;;;;;;5104647;28;20177;-90
2023/08/24 04:32:37;;;;;;;15.23;14.23;;;14.30;92.20;;;;;;5103004;28;20186;-90
2023/08/24 04:35:03;;;;;;;14.77;13.77;;;14.40;92.30;;;;;;5099293;28;20224;-90
2023/08/24 04:37:29;;;;;;;16.00;14.50;;;14.50;92.30;;;;;;5099445;28;20200;-88
2023/08/24 04:39:54;;;;;;;14.43;13.43;;;14.50;92.30;;;;;;5101513;28;20182;-90
2023/08/24 04:42:20;;;;;;;16.08;14.57;;;14.60;92.30;;;;;;5099112;28;20208;-90
2023/08/24 04:44:45;;;;;;;15.32;14.23;;;14.60;92.30;;;;;;5100775;28;20228;-90
2023/08/24 04:47:11;;;;;;;16.02;14.50;;;14.60;92.30;;;;;;5102835;28;20190;-90
2023/08/24 04:49:37;;;;;;;17.02;15.35;;;14.70;92.30;;;;;;5104318;28;20189;-90
2023/08/24 04:52:03;;;;;;;30.38;13.27;;;14.60;92.20;;;;;;5104913;28;20193;-90
2023/08/24 04:54:29;;;;;;;35.92;12.55;;;14.70;92.20;;;;;;5103567;28;21881;-90
2023/08/24 04:56:54;;;;;;;32.13;12.30;;;14.70;92.10;;;;;;5101587;28;20203;-90
2023/08/24 04:59:20;;;;;;;36.55;12.57;;;14.50;92.20;;;;;;5102200;28;20179;-90
2023/08/24 05:01:45;;;;;;;12.50;11.70;;;14.40;92.30;;;;;;5102322;28;20194;-90
2023/08/24 05:04:11;;;;;;;13.02;12.13;;;14.50;92.60;;;;;;5102520;28;20191;-89
2023/08/24 05:06:36;;;;;;;13.73;12.55;;;14.70;92.70;;;;;;5102193;28;20171;-90
2023/08/24 05:09:02;;;;;;;16.90;13.32;;;14.80;92.70;;;;;;5107366;28;20197;-90
2023/08/24 05:11:31;;;;;;;32.13;12.68;;;14.80;92.70;;;;;;5100387;28;20171;-90
2023/08/24 05:13:56;;;;;;;24.23;13.00;;;14.80;92.40;;;;;;5100415;28;20676;-90
2023/08/24 05:16:22;;;;;;;42.40;13.57;;;14.70;92.30;;;;;;5102213;28;20212;-90
2023/08/24 05:18:47;;;;;;;18.80;13.40;;;14.50;92.30;;;;;;5099984;28;20175;-90
2023/08/24 05:21:13;;;;;;;21.48;13.85;;;14.40;92.50;;;;;;5102132;28;20177;-90
2023/08/24 05:23:39;;;;;;;14.65;13.45;;;14.40;92.70;;;;;;5099034;28;20575;-90
2023/08/24 05:26:04;;;;;;;21.42;14.43;;;14.40;92.80;;;;;;5104127;28;20182;-90
2023/08/24 05:28:31;;;;;;;15.63;14.52;;;14.50;93.00;;;;;;5104818;28;20192;-90
2023/08/24 05:30:57;;;;;;;26.70;15.55;;;14.60;93.10;;;;;;5104319;28;20187;-90
2023/08/24 05:33:24;;;;;;;21.58;15.20;;;14.70;93.20;;;;;;5101630;28;20185;-90
2023/08/24 05:35:50;;;;;;;17.13;15.73;;;14.80;93.20;;;;;;5103875;28;20222;-90
2023/08/24 05:38:16;;;;;;;17.52;16.20;;;14.80;93.20;;;;;;5100246;28;20171;-90
2023/08/24 05:40:43;;;;;;;17.23;15.77;;;15.00;93.20;;;;;;5109450;28;20179;-90
2023/08/24 05:43:09;;;;;;;17.02;15.73;;;15.10;93.20;;;;;;5105945;28;20206;-90
2023/08/24 05:45:35;;;;;;;17.63;16.20;;;15.20;93.20;;;;;;5100288;28;20195;-90
2023/08/24 05:48:01;;;;;;;16.40;15.20;;;15.30;93.10;;;;;;5100105;28;20188;-90
2023/08/24 05:50:27;;;;;;;21.25;16.42;;;15.30;93.10;;;;;;5105890;28;20166;-90
2023/08/24 05:52:52;;;;;;;23.73;18.73;;;15.40;93.10;;;;;;5101764;28;20183;-90
2023/08/24 05:55:18;;;;;;;30.88;17.35;;;15.50;93.00;;;;;;5100776;28;20235;-89
2023/08/24 05:57:44;;;;;;;25.80;18.42;;;15.50;93.10;;;;;;5103700;28;20185;-90
2023/08/24 06:00:10;;;;;;;33.05;17.63;;;15.60;93.10;;;;;;5100903;28;20179;-90
2023/08/24 06:02:36;;;;;;;27.38;18.95;;;15.60;93.20;;;;;;5097820;28;20190;-90
2023/08/24 06:05:02;;;;;;;25.30;19.35;;;15.70;93.20;;;;;;5098093;28;20255;-90
2023/08/24 06:07:29;;;;;;;25.60;19.20;;;15.80;93.30;;;;;;5097171;28;20179;-90
2023/08/24 06:09:56;;;;;;;22.02;19.90;;;15.80;93.40;;;;;;5097702;28;20511;-90
2023/08/24 06:12:21;;;;;;;32.42;19.90;;;15.90;93.40;;;;;;5097386;28;20201;-90
2023/08/24 06:14:47;;;;;;;24.13;21.23;;;16.00;93.50;;;;;;5094064;28;20583;-90
2023/08/24 06:17:12;;;;;;;23.98;21.20;;;16.00;93.60;;;;;;5095877;28;20163;-90
2023/08/24 06:19:38;;;;;;;33.97;21.98;;;16.10;93.60;;;;;;5094951;28;20258;-90
2023/08/24 06:22:03;;;;;;;27.17;21.50;;;16.20;93.70;;;;;;5094387;28;20178;-90
2023/08/24 06:24:29;;;;;;;25.45;22.90;;;16.20;93.80;;;;;;5096352;28;20207;-90
2023/08/24 06:26:54;;;;;;;25.58;23.48;;;16.30;93.80;;;;;;5096635;28;20292;-90
2023/08/24 06:29:20;;;;;;;28.17;24.40;;;16.30;93.90;;;;;;5096427;28;20183;-90
2023/08/24 06:31:45;;;;;;;28.08;25.55;;;16.40;94.00;;;;;;5096298;28;20261;-90
2023/08/24 06:34:11;;;;;;;28.60;26.02;;;16.50;94.00;;;;;;5095833;28;20257;-90
2023/08/24 06:36:36;;;;;;;30.30;27.50;;;16.60;94.10;;;;;;5098605;28;20202;-90
2023/08/24 06:39:04;;;;;;;29.85;27.05;;;16.70;94.10;;;;;;5099879;28;20693;-90
2023/08/24 06:41:33;;;;;;;30.98;28.00;;;16.80;94.20;;;;;;5102336;28;20174;-90
2023/08/24 06:43:58;;;;;;;30.42;27.48;;;16.80;94.20;;;;;;5100130;28;20617;-91
2023/08/24 06:46:24;;;;;;;29.05;26.50;;;16.90;94.20;;;;;;5100001;28;20195;-90
2023/08/24 06:48:49;;;;;;;28.08;25.08;;;17.00;94.20;;;;;;5102988;28;20167;-90
2023/08/24 06:51:16;;;;;;;26.67;24.13;;;17.00;94.20;;;;;;5102844;28;20661;-90
2023/08/24 06:53:42;;;;;;;26.30;23.77;;;17.10;94.20;;;;;;5103506;28;20174;-90
2023/08/24 06:56:08;;;;;;;23.10;21.05;;;17.00;94.10;;;;;;5101299;28;20210;-91
2023/08/24 06:58:34;;;;;;;24.42;21.77;;;17.00;94.00;;;;;;5106047;28;20162;-90
2023/08/24 07:01:00;;;;;;;22.63;20.48;;;17.00;94.10;;;;;;5102457;28;20201;-91
2023/08/24 07:03:26;;;;;;;20.98;18.98;;;17.10;94.10;;;;;;5100904;28;20208;-90
2023/08/24 07:05:52;;;;;;;21.50;18.30;;;17.10;93.90;;;;;;5100822;28;20662;-91
2023/08/24 07:08:17;;;;;;;19.35;17.48;;;17.10;93.80;;;;;;5099922;28;20240;-90
2023/08/24 07:10:43;;;;;;;19.23;17.33;;;17.10;93.80;;;;;;5101364;28;20200;-90
2023/08/24 07:13:09;;;;;;;18.85;16.85;;;17.10;93.60;;;;;;5100998;28;20203;-90
2023/08/24 07:15:35;;;;;;;16.08;14.55;;;17.20;93.60;;;;;;5101168;28;20190;-90
2023/08/24 07:18:05;;;;;;;15.05;12.80;;;17.20;93.50;;;;;;5100343;28;20186;-90
2023/08/24 07:20:32;;;;;;;13.45;11.80;;;17.20;93.30;;;;;;5100468;28;20202;-90
2023/08/24 07:22:58;;;;;;;12.98;10.52;;;17.20;92.80;;;;;;5100951;28;20198;-90
2023/08/24 07:25:24;;;;;;;12.65;11.27;;;17.20;92.10;;;;;;5103345;28;20202;-90
2023/08/24 07:27:50;;;;;;;10.18;8.88;;;17.30;91.70;;;;;;5105518;28;20178;-91
2023/08/24 07:30:15;;;;;;;11.65;8.00;;;17.50;91.60;;;;;;5101572;28;20171;-90
2023/08/24 07:32:41;;;;;;;7.88;7.00;;;17.60;91.20;;;;;;5103398;28;20258;-91
2023/08/24 07:35:07;;;;;;;17.48;16.08;;;17.60;90.60;;;;;;5102151;28;20270;-90
2023/08/24 07:37:33;;;;;;;21.30;19.58;;;17.70;89.20;;;;;;5099986;28;20179;-90
2023/08/24 07:39:59;;;;;;;23.40;21.48;;;17.80;88.60;;;;;;5101320;28;20224;-91
2023/08/24 07:42:24;;;;;;;15.55;9.77;;;18.00;88.50;;;;;;5097492;28;20171;-91
2023/08/24 07:44:50;;;;;;;10.98;9.98;;;18.10;88.10;;;;;;5097903;28;20674;-91
2023/08/24 07:47:16;;;;;;;18.55;17.20;;;18.00;87.60;;;;;;5095154;28;20167;-89
2023/08/24 07:49:44;;;;;;;19.45;17.98;;;18.20;87.70;;;;;;5094645;28;20176;-89
2023/08/24 07:52:12;;;;;;;21.67;19.90;;;18.20;87.30;;;;;;5096926;28;20166;-90
2023/08/24 07:54:37;;;;;;;11.65;10.60;;;18.20;87.20;;;;;;5096003;28;20272;-90
2023/08/24 07:57:04;;;;;;;12.20;11.00;;;18.30;87.00;;;;;;5096000;28;20159;-90
2023/08/24 07:59:29;;;;;;;19.80;18.50;;;18.50;85.90;;;;;;5095944;28;20180;-91
2023/08/24 08:01:55;;;;;;;21.60;19.80;;;18.50;84.60;;;;;;5096852;28;20171;-90
2023/08/24 08:04:20;;;;;;;24.08;22.25;;;18.50;84.60;;;;;;5095975;28;20682;-89
2023/08/24 08:06:46;;;;;;;22.75;20.98;;;18.70;85.10;;;;;;5095599;28;20262;-90
2023/08/24 08:09:12;;;;;;;13.80;12.70;;;18.70;84.20;;;;;;5097825;28;20175;-90
2023/08/24 08:11:38;;;;;;;14.65;13.45;;;18.80;84.00;;;;;;5097403;28;20692;-90
2023/08/24 08:14:03;;;;;;;22.13;20.45;;;18.90;83.30;;;;;;5097632;28;20167;-91
2023/08/24 08:16:29;;;;;;;23.20;21.38;;;19.00;83.50;;;;;;5096437;28;20224;-91
2023/08/24 08:18:54;;;;;;;26.98;24.67;;;19.20;83.50;;;;;;5097307;28;20598;-90
2023/08/24 08:21:20;;;;;;;15.48;13.93;;;19.10;82.00;;;;;;5095264;28;20568;-91
2023/08/24 08:23:46;;;;;;;14.63;13.45;;;19.10;82.10;;;;;;5099321;28;20202;-91
2023/08/24 08:26:15;;;;;;;22.63;20.60;;;19.20;82.30;;;;;;5098863;28;20182;-91
2023/08/24 08:28:41;;;;;;;23.08;21.38;;;19.20;82.30;;;;;;5099749;28;20267;-91
2023/08/24 08:31:06;;;;;;;23.80;21.77;;;19.30;80.80;;;;;;5097075;28;20194;-91
2023/08/24 08:33:32;;;;;;;17.33;16.13;;;19.40;79.80;;;;;;5099141;28;20572;-91
2023/08/24 08:35:58;;;;;;;17.48;16.27;;;19.40;76.10;;;;;;5097033;28;20200;-91
2023/08/24 08:38:25;;;;;;;26.02;24.23;;;19.60;76.50;;;;;;5100899;28;20226;-91
2023/08/24 08:40:56;;;;;;;26.52;24.65;;;19.60;76.10;;;;;;5095757;28;20175;-91
2023/08/24 08:43:22;;;;;;;31.25;29.08;;;19.70;76.90;;;;;;5094236;28;20187;-91
2023/08/24 08:45:51;;;;;;;15.38;14.07;;;19.80;76.90;;;;;;5093950;28;20186;-90
2023/08/24 08:48:17;;;;;;;17.02;15.70;;;19.90;77.00;;;;;;5097239;28;20669;-91
2023/08/24 08:50:42;;;;;;;25.05;23.10;;;20.00;76.00;;;;;;5098862;28;20174;-91
2023/08/24 08:53:08;;;;;;;27.63;25.38;;;20.20;77.50;;;;;;5095971;28;20646;-90
2023/08/24 08:55:34;;;;;;;15.90;14.57;;;20.30;77.00;;;;;;5101277;28;20213;-88
2023/08/24 08:58:02;;;;;;;16.70;15.32;;;20.40;77.00;;;;;;5097146;28;20187;-90
2023/08/24 09:00:28;;;;;;;16.75;15.48;;;20.50;76.30;;;;;;5092891;28;20175;-90
2023/08/24 09:02:55;;;;;;;17.75;16.40;;;20.60;76.10;;;;;;5092894;28;20670;-92
2023/08/24 09:05:21;;;;;;;17.88;16.58;;;20.60;74.60;;;;;;5093197;28;20199;-91
2023/08/24 09:07:47;;;;;;;18.13;16.73;;;20.80;73.30;;;;;;5092685;28;20171;-91
2023/08/24 09:10:13;;;;;;;17.52;16.23;;;20.80;72.60;;;;;;5093396;28;20175;-90
2023/08/24 09:12:39;;;;;;;17.83;16.55;;;21.00;73.10;;;;;;5096448;28;20236;-90
2023/08/24 09:15:06;;;;;;;18.25;16.83;;;21.10;72.70;;;;;;5095325;28;20191;-90
2023/08/24 09:17:33;;;;;;;17.50;16.20;;;21.00;71.80;;;;;;5093156;28;20170;-90
2023/08/24 09:20:00;;;;;;;17.20;15.90;;;21.00;71.50;;;;;;5094428;28;20175;-91
2023/08/24 09:22:26;;;;;;;18.48;16.60;;;21.10;72.50;;;;;;5095605;28;20549;-90
2023/08/24 09:24:52;;;;;;;17.23;15.73;;;21.20;72.60;;;;;;5096690;28;20183;-90
2023/08/24 09:27:22;;;;;;;17.00;15.60;;;21.40;72.20;;;;;;5110403;28;20158;-91
2023/08/24 09:29:50;;;;;;;17.00;15.90;;;21.60;72.60;;;;;;5112896;28;20171;-91
2023/08/24 09:32:22;;;;;;;18.75;17.20;;;21.70;71.80;;;;;;5110101;28;20158;-91
2023/08/24 09:34:47;;;;;;;18.02;16.75;;;21.50;70.30;;;;;;5106598;28;20195;-91
2023/08/24 09:37:17;;;;;;;19.17;17.50;;;21.60;70.10;;;;;;5108670;28;20205;-91
2023/08/24 09:39:42;;;;;;;18.73;17.33;;;21.70;69.70;;;;;;5112656;28;20196;-91
2023/08/24 09:42:08;;;;;;;18.85;17.30;;;21.70;67.90;;;;;;5101263;28;20281;-91
2023/08/24 09:44:34;;;;;;;23.17;21.05;;;21.80;67.30;;;;;;5096689;28;20293;-91
2023/08/24 09:47:00;;;;;;;26.80;24.75;;;21.90;67.70;;;;;;5096861;28;20223;-91
2023/08/24 09:49:27;;;;;;;28.55;26.55;;;22.20;68.00;;;;;;5097276;28;20188;-91
2023/08/24 09:51:56;;;;;;;28.15;26.15;;;22.20;68.70;;;;;;5095208;28;20205;-91
2023/08/24 09:54:24;;;;;;;18.05;16.38;;;21.80;67.50;;;;;;5098309;28;20171;-91
2023/08/24 09:56:50;;;;;;;17.60;16.30;;;21.90;68.60;;;;;;5097505;28;20159;-91
2023/08/24 09:59:21;;;;;;;17.88;16.40;;;22.20;67.90;;;;;;5102244;28;20221;-89
2023/08/24 10:01:49;;;;;;;19.40;17.80;;;22.20;69.50;;;;;;5101727;28;20170;-89
2023/08/24 10:04:17;;;;;;;19.10;17.35;;;22.20;69.60;;;;;;5099122;28;20201;-90
2023/08/24 10:06:44;;;;;;;17.40;16.27;;;22.40;69.60;;;;;;5094938;28;20175;-91
2023/08/24 10:09:31;;;;;;;18.15;16.80;;;22.60;69.30;;;;;;5096386;28;20545;-90
2023/08/24 10:12:04;;;;;;;17.77;16.30;;;22.70;69.90;;;;;;5104381;28;20235;-91
2023/08/24 10:14:36;;;;;;;18.73;17.05;;;22.70;68.20;;;;;;5103348;28;20185;-91
2023/08/24 10:17:02;;;;;;;16.40;15.20;;;22.60;68.80;;;;;;5103068;28;20247;-90
2023/08/24 10:19:30;;;;;;;26.05;24.15;;;22.50;69.10;;;;;;5101813;28;20206;-90
2023/08/24 10:21:57;;;;;;;29.02;26.83;;;22.90;69.30;;;;;;5103143;28;20174;-90
2023/08/24 10:24:22;;;;;;;31.45;29.05;;;23.10;69.80;;;;;;5102115;28;20718;-90
2023/08/24 10:26:49;;;;;;;17.75;16.30;;;23.40;68.50;;;;;;5102178;28;20214;-91
2023/08/24 10:29:16;;;;;;;17.00;15.55;;;23.20;68.70;;;;;;5102155;28;20170;-90
2023/08/24 10:31:43;;;;;;;17.40;16.20;;;23.20;68.60;;;;;;5101673;28;20540;-91
2023/08/24 10:34:09;;;;;;;18.05;16.75;;;23.20;66.40;;;;;;5100725;28;20258;-91
2023/08/24 10:36:37;;;;;;;18.65;16.95;;;23.40;67.30;;;;;;5099842;28;20655;-91
2023/08/24 10:39:06;;;;;;;16.95;15.73;;;23.50;68.00;;;;;;5100732;28;20169;-91
2023/08/24 10:41:52;;;;;;;17.90;16.50;;;23.80;68.50;;;;;;5101392;28;20171;-90
2023/08/24 10:44:33;;;;;;;17.50;16.20;;;24.00;68.20;;;;;;5101950;28;20195;-91
2023/08/24 10:47:25;;;;;;;17.25;16.08;;;24.10;67.60;;;;;;5100383;28;20159;-91
2023/08/24 10:49:54;;;;;;;19.15;17.40;;;23.90;66.40;;;;;;5100772;28;20163;-90
2023/08/24 10:52:25;;;;;;;18.65;17.15;;;24.20;66.10;;;;;;5101318;28;20516;-91
2023/08/24 10:54:52;;;;;;;20.00;18.35;;;24.50;66.20;;;;;;5100926;28;20206;-90
2023/08/24 10:57:19;;;;;;;20.20;18.63;;;24.40;64.80;;;;;;5101836;28;20151;-91
2023/08/24 10:59:45;;;;;;;19.85;18.23;;;24.30;65.30;;;;;;5101201;28;20170;-91
2023/08/24 11:02:19;;;;;;;20.85;19.20;;;24.60;62.00;;;;;;5101089;28;20171;-92
2023/08/24 11:05:04;;;;;;;23.65;19.45;;;24.70;64.60;;;;;;5100537;28;20224;-91
2023/08/24 11:07:29;;;;;;;21.45;19.70;;;24.40;64.70;;;;;;5099591;28;20166;-91
2023/08/24 11:09:55;;;;;;;21.17;19.60;;;24.40;66.00;;;;;;5097512;28;20174;-91
2023/08/24 11:12:24;;;;;;;21.08;19.02;;;24.40;64.60;;;;;;5099326;28;20262;-91
2023/08/24 11:14:58;;;;;;;19.98;18.48;;;24.60;63.70;;;;;;5101778;28;20743;-90
2023/08/24 11:17:24;;;;;;;19.63;17.80;;;24.90;63.10;;;;;;5099885;28;20150;-91
2023/08/24 11:19:51;;;;;;;19.42;17.88;;;25.10;60.70;;;;;;5097715;28;20173;-90
2023/08/24 11:22:17;;;;;;;20.33;18.63;;;25.00;61.10;;;;;;5097558;28;20167;-91
2023/08/24 11:24:43;;;;;;;19.90;18.08;;;25.00;62.50;;;;;;5098601;28;20211;-91
2023/08/24 11:27:09;;;;;;;19.92;18.42;;;25.20;63.10;;;;;;5097731;28;20166;-91
2023/08/24 11:29:35;;;;;;;20.02;18.63;;;25.00;62.60;;;;;;5098155;28;20171;-91
2023/08/24 11:32:00;;;;;;;19.55;18.05;;;25.00;63.40;;;;;;5099842;28;20788;-91
2023/08/24 11:34:26;;;;;;;20.52;18.52;;;25.10;61.30;;;;;;5099307;28;20253;-91
2023/08/24 11:36:53;;;;;;;19.80;17.48;;;25.20;60.20;;;;;;5098056;28;20205;-91
2023/08/24 11:39:20;;;;;;;19.02;17.67;;;25.10;59.50;;;;;;5100552;28;20167;-92
2023/08/24 11:42:05;;;;;;;17.77;16.17;;;25.20;60.10;;;;;;5104986;28;20178;-92
2023/08/24 11:44:47;;;;;;;18.23;16.42;;;25.60;58.70;;;;;;5108949;28;20343;-91
2023/08/24 11:47:13;;;;;;;17.95;16.50;;;25.60;59.40;;;;;;5095689;28;20629;-91
2023/08/24 11:49:38;;;;;;;17.48;16.05;;;25.50;59.20;;;;;;5096210;28;20214;-90
2023/08/24 11:52:04;;;;;;;17.58;16.27;;;25.60;60.50;;;;;;5096448;28;20175;-90
2023/08/24 11:54:32;;;;;;;17.30;15.90;;;25.40;59.80;;;;;;5096016;28;20700;-90
2023/08/24 11:56:58;;;;;;;16.95;15.75;;;25.20;58.70;;;;;;5096734;28;20528;-90
2023/08/24 11:59:24;;;;;;;17.90;16.48;;;25.20;57.10;;;;;;5096100;28;20171;-90
2023/08/24 12:01:50;;;;;;;18.52;17.10;;;25.20;60.30;;;;;;5096127;28;20178;-91
2023/08/24 12:04:16;;;;;;;18.35;16.60;;;25.40;60.70;;;;;;5096702;28;20658;-90
2023/08/24 12:06:41;;;;;;;17.58;16.05;;;25.20;60.50;;;;;;5096662;28;20175;-90
2023/08/24 12:09:07;;;;;;;18.38;17.08;;;24.90;59.60;;;;;;5096768;28;20170;-90
2023/08/24 12:11:37;;;;;;;18.90;16.75;;;24.80;60.70;;;;;;5096952;28;20177;-90
2023/08/24 12:14:02;;;;;;;18.75;17.25;;;24.90;60.90;;;;;;5096657;28;20701;-90
2023/08/24 12:16:31;;;;;;;18.48;17.02;;;25.00;62.50;;;;;;5096692;28;20229;-90
2023/08/24 12:19:05;;;;;;;18.67;17.25;;;25.00;59.80;;;;;;5095309;28;20248;-93
2023/08/24 12:21:31;;;;;;;18.10;16.77;;;25.10;61.40;;;;;;5078384;28;20183;-93
2023/08/24 12:23:58;;;;;;;17.63;16.33;;;25.40;61.40;;;;;;5093431;28;20237;-91
2023/08/24 12:26:23;;;;;;;18.40;16.80;;;25.50;59.90;;;;;;5094366;28;20230;-92